Time;durP1;ratioP1;P1;durP2;ratioP2;P2;SDS_P1;SDS_P2;PMS_P1;PMS_P2;Temp;Humidity;BMP_temperature;BMP_pressure;BME280_temperature;BME280_humidity;BME280_pressure;Samples;Min_cycle;Max_cycle;Signal;HPM_P1;HPM_P2
2022/06/27 00:04:29;;;;;;;36.92;21.15;;;;;;;14.50;100.00;101338.50;10490805;28;20044;-80
2022/06/27 00:09:30;;;;;;;27.52;19.67;;;;;;;14.48;100.00;101337.53;10527341;28;20499;-79
2022/06/27 00:14:31;;;;;;;27.33;17.70;;;;;;;14.46;100.00;101345.41;10512551;28;20086;-79
2022/06/27 00:19:31;;;;;;;32.97;23.42;;;;;;;14.45;100.00;101355.84;10501254;28;20162;-79
2022/06/27 00:24:32;;;;;;;30.70;19.98;;;;;;;14.47;100.00;101354.19;10504875;28;20165;-78
2022/06/27 00:29:33;;;;;;;32.42;21.45;;;;;;;14.53;100.00;101372.84;10498400;28;20040;-78
2022/06/27 00:34:33;;;;;;;38.92;24.13;;;;;;;14.54;100.00;101364.13;10506105;28;20040;-78
2022/06/27 00:39:34;;;;;;;34.75;22.88;;;;;;;14.56;100.00;101370.34;10514593;28;20070;-78
2022/06/27 00:44:41;;;;;;;29.00;21.70;;;;;;;14.59;100.00;101381.00;10525276;28;20029;-78
2022/06/27 00:49:42;;;;;;;28.35;20.33;;;;;;;14.59;100.00;101374.84;10496055;28;20044;-79
2022/06/27 00:54:44;;;;;;;28.08;20.58;;;;;;;14.61;100.00;101381.06;10493470;28;20047;-79
2022/06/27 00:59:44;;;;;;;41.73;21.23;;;;;;;14.61;100.00;101357.38;10500048;28;20127;-79
2022/06/27 01:04:45;;;;;;;29.15;20.63;;;;;;;14.59;100.00;101369.59;10497115;28;20263;-79
2022/06/27 01:09:45;;;;;;;27.00;20.00;;;;;;;14.62;100.00;101353.91;10486360;28;20629;-79
2022/06/27 01:14:46;;;;;;;30.55;20.77;;;;;;;14.57;100.00;101340.53;10489533;28;20083;-78
2022/06/27 01:19:46;;;;;;;27.25;20.55;;;;;;;14.59;100.00;101353.78;10485230;28;20555;-78
2022/06/27 01:24:47;;;;;;;38.17;20.98;;;;;;;14.57;100.00;101356.34;10497773;28;20040;-78
2022/06/27 01:29:47;;;;;;;29.70;20.15;;;;;;;14.49;100.00;101356.06;10512790;28;20391;-78
2022/06/27 01:34:48;;;;;;;29.92;20.85;;;;;;;14.46;100.00;101352.38;10500177;28;20047;-78
2022/06/27 01:39:48;;;;;;;27.13;20.35;;;;;;;14.37;100.00;101329.22;10510827;28;20477;-78
2022/06/27 01:44:49;;;;;;;32.63;20.00;;;;;;;14.30;100.00;101325.44;10484198;28;20131;-78
2022/06/27 01:49:49;;;;;;;32.35;23.85;;;;;;;14.16;100.00;101310.84;10502342;28;20059;-77
2022/06/27 01:54:50;;;;;;;34.35;23.90;;;;;;;14.06;100.00;101312.22;10522411;28;20068;-78
2022/06/27 01:59:51;;;;;;;31.85;21.23;;;;;;;14.04;100.00;101319.16;10513914;28;20062;-80
2022/06/27 02:04:52;;;;;;;33.33;23.05;;;;;;;14.10;100.00;101315.00;10460178;28;20048;-80
2022/06/27 02:09:53;;;;;;;33.00;21.43;;;;;;;14.13;100.00;101292.28;10511927;28;20043;-79
2022/06/27 02:14:53;;;;;;;33.60;24.05;;;;;;;14.15;100.00;101293.25;10513225;28;20075;-80
2022/06/27 02:19:54;;;;;;;35.30;23.45;;;;;;;14.18;100.00;101290.72;10499431;28;20551;-80
2022/06/27 02:24:54;;;;;;;38.80;26.00;;;;;;;14.18;100.00;101282.84;10521224;28;20036;-79
2022/06/27 02:29:55;;;;;;;41.15;25.92;;;;;;;14.21;100.00;101275.06;10450446;28;20540;-80
2022/06/27 02:34:56;;;;;;;34.45;23.83;;;;;;;14.16;100.00;101258.19;10505446;28;20048;-80
2022/06/27 02:39:56;;;;;;;44.95;28.38;;;;;;;14.08;100.00;101268.44;10512986;28;20477;-80
2022/06/27 02:44:57;;;;;;;35.75;24.45;;;;;;;14.09;100.00;101273.75;10492325;28;20514;-79
2022/06/27 02:49:57;;;;;;;42.13;27.38;;;;;;;14.10;100.00;101262.38;10488371;28;20127;-80
2022/06/27 02:55:01;;;;;;;42.45;27.63;;;;;;;14.13;100.00;101255.44;10505744;28;20123;-79
2022/06/27 03:00:02;;;;;;;38.58;27.77;;;;;;;14.16;100.00;101258.19;10471095;28;20511;-81
2022/06/27 03:05:03;;;;;;;42.47;27.83;;;;;;;14.16;100.00;101242.41;10507335;28;20056;-79
2022/06/27 03:10:04;;;;;;;34.00;24.90;;;;;;;14.14;100.00;101242.34;10525635;28;20448;-79
2022/06/27 03:15:05;;;;;;;40.53;26.13;;;;;;;14.10;100.00;101219.38;10503694;28;20153;-79
2022/06/27 03:20:06;;;;;;;44.33;28.10;;;;;;;14.04;100.00;101227.91;10473891;28;20043;-79
2022/06/27 03:25:07;;;;;;;39.03;26.15;;;;;;;14.02;100.00;101224.34;10460924;28;20037;-79
2022/06/27 03:30:07;;;;;;;37.40;26.85;;;;;;;13.94;100.00;101228.41;10531687;28;20067;-79
2022/06/27 03:35:08;;;;;;;44.40;26.38;;;;;;;13.84;100.00;101218.34;10513442;28;20078;-79
2022/06/27 03:40:09;;;;;;;45.20;28.58;;;;;;;13.74;100.00;101230.25;10495315;28;20387;-79
2022/06/27 03:45:10;;;;;;;52.67;29.77;;;;;;;13.70;100.00;101252.00;10480449;28;20974;-79
2022/06/27 03:50:13;;;;;;;42.88;26.27;;;;;;;13.51;100.00;101265.25;10528285;28;20032;-79
2022/06/27 03:55:13;;;;;;;;;;;;;;;13.48;100.00;101266.88;10486050;28;20398;-79
2022/06/27 04:00:15;;;;;;;44.05;27.80;;;;;;;13.51;100.00;101262.63;10529484;28;19920;-79
2022/06/27 04:05:15;;;;;;;51.50;31.85;;;;;;;13.62;100.00;101259.56;10488999;28;20498;-80
2022/06/27 04:10:16;;;;;;;45.67;29.88;;;;;;;13.80;100.00;101239.25;10502930;28;20043;-79
2022/06/27 04:15:16;;;;;;;46.95;29.58;;;;;;;14.02;100.00;101249.75;10480069;28;20119;-77
2022/06/27 04:20:17;;;;;;;41.55;25.85;;;;;;;14.12;100.00;101243.13;10460143;28;20059;-79
2022/06/27 04:25:18;;;;;;;40.22;27.75;;;;;;;14.17;100.00;101255.63;10473079;28;20042;-78
2022/06/27 04:30:18;;;;;;;40.20;25.67;;;;;;;14.20;100.00;101261.03;10487482;28;20048;-79
2022/06/27 04:35:19;;;;;;;37.05;22.92;;;;;;;14.36;100.00;101251.97;10468268;28;20061;-78
2022/06/27 04:40:20;;;;;;;31.40;22.83;;;;;;;14.53;100.00;101233.28;10467110;28;20123;-78
2022/06/27 04:45:20;;;;;;;31.67;22.42;;;;;;;14.61;100.00;101226.56;10491355;28;20040;-80
2022/06/27 04:50:22;;;;;;;32.85;21.25;;;;;;;14.67;100.00;101221.50;10527310;28;20059;-80
2022/06/27 04:55:27;;;;;;;28.52;19.75;;;;;;;14.65;100.00;101212.66;10497887;28;20047;-78
2022/06/27 05:00:28;;;;;;;26.58;19.35;;;;;;;14.65;100.00;101209.13;10512642;28;20467;-79
2022/06/27 05:05:28;;;;;;;29.20;22.67;;;;;;;14.65;100.00;101204.75;10524097;28;20221;-80
2022/06/27 05:10:29;;;;;;;34.30;22.20;;;;;;;14.64;100.00;101221.41;10516750;28;20047;-79
2022/06/27 05:15:30;;;;;;;35.42;22.42;;;;;;;14.82;100.00;101196.59;10478627;28;20041;-80
2022/06/27 05:20:30;;;;;;;31.40;21.02;;;;;;;14.98;100.00;101169.94;10485579;28;20131;-79
2022/06/27 05:25:31;;;;;;;27.90;19.50;;;;;;;15.00;100.00;101183.19;10494981;28;20040;-78
2022/06/27 05:30:33;;;;;;;33.38;22.60;;;;;;;15.07;100.00;101213.25;10498869;28;20046;-78
2022/06/27 05:35:34;;;;;;;33.60;23.10;;;;;;;15.11;100.00;101242.44;10474279;28;20044;-78
2022/06/27 05:40:36;;;;;;;35.42;24.58;;;;;;;15.56;100.00;101270.31;10455225;28;20095;-78
2022/06/27 05:45:37;;;;;;;26.40;18.33;;;;;;;16.32;100.00;101282.41;10459354;28;20409;-79
2022/06/27 05:50:38;;;;;;;24.05;17.55;;;;;;;16.83;96.63;101265.44;10454273;28;20039;-80
2022/06/27 05:55:40;;;;;;;27.05;18.23;;;;;;;16.79;93.31;101279.41;10442906;28;20039;-79
2022/06/27 06:00:41;;;;;;;25.02;21.17;;;;;;;16.57;93.80;101280.53;10443406;28;20095;-79
2022/06/27 06:05:42;;;;;;;21.40;18.40;;;;;;;16.50;95.52;101303.22;10468925;28;20128;-78
2022/06/27 06:10:43;;;;;;;24.65;18.65;;;;;;;16.39;98.20;101296.72;10460389;28;20119;-78
2022/06/27 06:15:44;;;;;;;21.20;17.90;;;;;;;16.40;98.79;101286.19;10464213;28;20066;-79
2022/06/27 06:20:45;;;;;;;26.40;18.42;;;;;;;16.41;97.98;101329.38;10483484;28;20115;-78
2022/06/27 06:25:45;;;;;;;25.27;19.85;;;;;;;16.30;98.73;101339.59;10459152;28;20401;-78
2022/06/27 06:30:46;;;;;;;29.33;22.25;;;;;;;16.22;99.09;101367.50;10482676;28;20075;-81
2022/06/27 06:35:46;;;;;;;27.42;22.05;;;;;;;16.10;98.88;101370.66;10448156;28;20128;-81
2022/06/27 06:40:47;;;;;;;24.08;20.17;;;;;;;16.05;98.66;101359.91;10449971;28;20051;-81
2022/06/27 06:45:47;;;;;;;28.83;22.55;;;;;;;16.18;99.10;101332.19;10448263;28;20072;-80
2022/06/27 06:50:48;;;;;;;26.73;19.75;;;;;;;16.56;96.31;101299.88;10440465;28;20789;-80
2022/06/27 06:55:49;;;;;;;42.05;22.15;;;;;;;16.69;95.05;101272.94;10479441;28;20536;-82
2022/06/27 07:00:50;;;;;;;26.33;21.37;;;;;;;16.98;93.40;101256.16;10468949;28;20366;-80
2022/06/27 07:05:51;;;;;;;35.97;21.48;;;;;;;17.06;93.26;101259.00;10436565;28;20362;-80
2022/06/27 07:10:52;;;;;;;22.33;18.52;;;;;;;17.34;89.20;101260.66;10436432;28;20041;-78
2022/06/27 07:15:53;;;;;;;25.15;20.15;;;;;;;17.44;89.66;101283.84;10480139;28;20068;-78
2022/06/27 07:20:54;;;;;;;27.48;19.88;;;;;;;17.95;89.17;101300.09;10482863;28;20052;-79
2022/06/27 07:25:55;;;;;;;19.70;17.02;;;;;;;18.34;85.58;101311.63;10444471;28;20057;-81
2022/06/27 07:30:55;;;;;;;24.58;18.45;;;;;;;17.99;86.70;101315.22;10469195;28;20515;-81
2022/06/27 07:35:56;;;;;;;22.83;18.63;;;;;;;17.92;87.38;101297.38;10483425;28;20108;-80
2022/06/27 07:40:57;;;;;;;21.30;17.55;;;;;;;18.24;85.63;101278.75;10488694;28;20127;-81
2022/06/27 07:45:58;;;;;;;20.27;16.37;;;;;;;18.52;81.69;101313.81;10484581;28;20045;-81
2022/06/27 07:50:59;;;;;;;21.42;18.95;;;;;;;18.50;84.06;101326.13;10447958;28;20044;-81
2022/06/27 07:56:00;;;;;;;26.15;20.38;;;;;;;18.24;85.35;101362.59;10447326;28;20041;-81
2022/06/27 08:01:02;;;;;;;21.60;18.17;;;;;;;18.07;86.35;101360.44;10447896;28;20131;-81
2022/06/27 08:06:05;;;;;;;23.70;18.67;;;;;;;18.33;86.93;101361.09;10447950;28;20029;-81
2022/06/27 08:11:06;;;;;;;22.35;17.40;;;;;;;18.78;83.00;101362.06;10447002;28;20041;-80
2022/06/27 08:16:08;;;;;;;22.27;18.53;;;;;;;19.03;82.03;101365.28;10446666;28;20373;-81
2022/06/27 08:21:08;;;;;;;25.38;16.90;;;;;;;19.12;81.02;101376.94;10447700;28;20427;-81
2022/06/27 08:26:09;;;;;;;25.52;19.58;;;;;;;19.27;80.26;101376.38;10447095;28;20098;-80
2022/06/27 08:31:12;;;;;;;23.88;21.10;;;;;;;19.30;78.96;101395.00;10446181;28;20068;-80
2022/06/27 08:36:15;;;;;;;23.95;18.80;;;;;;;19.24;78.79;101411.69;10447676;28;20052;-80
2022/06/27 08:41:25;;;;;;;24.88;17.60;;;;;;;19.14;77.67;101386.72;10484917;28;20033;-80
2022/06/27 08:46:27;;;;;;;22.30;15.75;;;;;;;19.01;77.05;101397.94;10470126;28;20506;-81
2022/06/27 08:51:28;;;;;;;21.85;17.80;;;;;;;18.95;79.09;101385.41;10468621;28;20481;-80
2022/06/27 08:56:30;;;;;;;25.67;19.77;;;;;;;19.02;78.94;101403.28;10445829;28;20507;-80
2022/06/27 09:01:32;;;;;;;25.50;17.30;;;;;;;19.48;76.87;101421.91;10446136;28;20294;-80
2022/06/27 09:06:44;;;;;;;27.02;18.63;;;;;;;20.23;75.82;101416.19;10461926;28;20449;-80
2022/06/27 09:11:46;;;;;;;22.40;17.70;;;;;;;20.51;72.87;101424.59;10443292;28;20056;-80
2022/06/27 09:16:56;;;;;;;18.58;15.80;;;;;;;20.52;71.87;101415.75;10444537;28;20057;-80
2022/06/27 09:22:09;;;;;;;19.27;14.85;;;;;;;20.95;68.12;101410.19;10427187;28;20488;-80
2022/06/27 09:27:10;;;;;;;19.85;15.73;;;;;;;21.30;68.41;101406.19;10443857;28;20068;-81
2022/06/27 09:32:11;;;;;;;18.38;16.05;;;;;;;21.09;68.82;101406.81;10442922;28;20533;-80
2022/06/27 09:37:13;;;;;;;15.43;13.52;;;;;;;20.47;68.74;101414.78;10445242;28;20033;-80
2022/06/27 09:42:14;;;;;;;18.85;13.25;;;;;;;20.23;69.02;101424.16;10443629;28;20037;-80
2022/06/27 09:47:19;;;;;;;17.95;13.30;;;;;;;20.21;69.25;101428.53;10464104;28;20055;-80
2022/06/27 09:52:22;;;;;;;11.40;10.18;;;;;;;20.61;67.81;101416.75;10442180;28;20037;-80
2022/06/27 09:57:22;;;;;;;14.13;11.05;;;;;;;20.91;64.41;101412.78;10503114;28;20453;-80
2022/06/27 10:02:23;;;;;;;12.82;8.65;;;;;;;21.37;63.57;101399.16;10503116;28;20066;-80
2022/06/27 10:07:24;;;;;;;20.10;13.50;;;;;;;21.72;62.18;101390.69;10501567;28;20123;-81
2022/06/27 10:12:31;;;;;;;15.40;10.30;;;;;;;21.96;63.33;101394.47;10484517;28;20036;-80
2022/06/27 10:17:33;;;;;;;14.93;11.90;;;;;;;22.78;60.04;101392.41;10465077;28;20442;-81
2022/06/27 10:22:33;;;;;;;;;;;;;;;23.16;56.57;101390.78;10469168;28;20467;-82
2022/06/27 10:27:34;;;;;;;12.95;11.23;;;;;;;22.54;60.17;101379.81;10504504;28;19920;-81
2022/06/27 10:32:39;;;;;;;15.23;11.13;;;;;;;22.17;62.75;101377.75;10450268;28;20037;-81
2022/06/27 10:37:41;;;;;;;13.15;9.85;;;;;;;22.82;57.57;101386.19;10507663;28;20561;-80
2022/06/27 10:42:50;;;;;;;;;;;;;;;23.86;54.80;101382.94;10504397;28;20045;-81
2022/06/27 10:47:57;;;;;;;11.68;7.32;;;;;;;24.39;51.51;101380.28;10486450;28;20287;-80
2022/06/27 10:53:19;;;;;;;11.27;8.57;;;;;;;24.99;50.88;101371.22;10482054;28;20043;-80
2022/06/27 10:58:38;;;;;;;11.85;8.05;;;;;;;24.96;50.39;101389.97;10497893;28;20415;-80
2022/06/27 11:03:39;;;;;;;14.23;7.25;;;;;;;24.87;46.67;101394.47;10495250;28;20036;-80
2022/06/27 11:08:41;;;;;;;9.57;5.00;;;;;;;24.02;48.98;101386.56;10465776;28;20484;-80
2022/06/27 11:13:46;;;;;;;8.65;6.57;;;;;;;22.78;54.50;101397.72;10484699;28;20040;-79
2022/06/27 11:18:51;;;;;;;12.35;6.60;;;;;;;22.05;55.60;101401.63;10504992;28;20071;-79
2022/06/27 11:23:58;;;;;;;8.32;5.25;;;;;;;21.58;58.54;101395.84;10512413;28;20055;-80
2022/06/27 11:34:19;;;;;;;11.38;6.72;;;;;;;21.73;56.37;101413.78;10484964;28;20041;-78
2022/06/27 11:39:24;;;;;;;10.48;6.57;;;;;;;21.75;60.69;101422.69;10467122;28;20040;-79
2022/06/27 11:44:25;;;;;;;13.20;6.78;;;;;;;21.26;62.26;101425.66;10489606;28;20435;-78
2022/06/27 11:49:39;;;;;;;11.23;5.95;;;;;;;20.92;62.73;101404.84;10472683;28;20154;-78
2022/06/27 11:54:46;;;;;;;13.55;5.13;;;;;;;21.02;62.95;101402.28;10488214;28;20037;-78
2022/06/27 11:59:48;;;;;;;8.07;5.03;;;;;;;20.89;64.13;101383.50;10484420;28;20039;-79
2022/06/27 12:04:48;;;;;;;8.15;3.80;;;;;;;21.24;61.13;101390.13;10487370;28;20395;-79
2022/06/27 12:09:50;;;;;;;9.77;3.97;;;;;;;22.05;60.66;101382.97;10508565;28;20050;-80
2022/06/27 12:14:51;;;;;;;11.35;4.93;;;;;;;22.88;58.23;101401.34;10459019;28;20037;-79
2022/06/27 12:20:01;;;;;;;9.10;5.27;;;;;;;23.92;54.51;101390.97;10490515;28;20037;-80
2022/06/27 12:25:01;;;;;;;12.40;4.88;;;;;;;24.90;53.77;101389.09;10493538;28;20130;-78
2022/06/27 12:30:02;;;;;;;9.33;6.50;;;;;;;24.83;48.79;101395.38;10501755;28;20484;-79
2022/06/27 12:35:03;;;;;;;12.57;7.20;;;;;;;24.00;54.66;101370.50;10514733;28;20119;-80
2022/06/27 12:40:05;;;;;;;10.70;6.15;;;;;;;23.27;54.41;101390.84;10458423;28;20033;-80
2022/06/27 12:45:06;;;;;;;14.90;8.90;;;;;;;23.05;54.94;101390.75;10450384;28;20049;-79
2022/06/27 12:50:07;;;;;;;11.67;8.70;;;;;;;22.26;57.82;101390.25;10445744;28;20068;-80
2022/06/27 12:55:08;;;;;;;10.80;7.60;;;;;;;22.65;57.63;101383.44;10442206;28;20264;-79
2022/06/27 13:00:09;;;;;;;16.60;7.00;;;;;;;23.28;55.91;101405.97;10445043;28;20037;-80
2022/06/27 13:05:10;;;;;;;8.93;7.32;;;;;;;22.94;56.31;101403.13;10419008;28;20522;-79
2022/06/27 13:10:11;;;;;;;11.73;9.90;;;;;;;22.49;56.55;101421.56;10457689;28;20171;-79
2022/06/27 13:15:11;;;;;;;13.30;9.73;;;;;;;21.76;59.69;101432.47;10445390;28;20047;-79
2022/06/27 13:20:12;;;;;;;14.53;10.43;;;;;;;20.98;63.81;101476.75;10456552;28;20055;-81
2022/06/27 13:25:13;;;;;;;7.60;2.73;;;;;;;19.35;63.04;101526.91;10433106;28;20044;-78
2022/06/27 13:30:14;;;;;;;5.43;1.95;;;;;;;16.39;72.47;101555.59;10442514;28;20070;-81
2022/06/27 13:35:15;;;;;;;27.80;16.40;;;;;;;15.02;82.49;101570.69;10432501;28;20045;-79
2022/06/27 13:40:15;;;;;;;6.20;2.55;;;;;;;13.95;91.14;101580.16;10453581;28;20461;-76
2022/06/27 13:45:17;;;;;;;16.02;4.22;;;;;;;13.57;95.16;101593.38;10456199;28;20059;-77
2022/06/27 13:50:17;;;;;;;3.92;2.70;;;;;;;13.43;98.17;101597.97;10491133;28;20039;-77
2022/06/27 13:55:18;;;;;;;7.80;3.03;;;;;;;13.49;100.00;101608.78;10490887;28;20068;-75
2022/06/27 14:00:20;;;;;;;4.72;3.08;;;;;;;13.50;100.00;101657.91;10435418;28;20485;-76
2022/06/27 14:05:20;;;;;;;7.93;3.45;;;;;;;13.56;99.61;101666.91;10426198;28;20044;-75
2022/06/27 14:10:21;;;;;;;9.45;3.60;;;;;;;13.65;100.00;101689.31;10440939;28;20511;-77
2022/06/27 14:15:22;;;;;;;9.45;4.22;;;;;;;13.92;100.00;101690.56;10464176;28;20040;-76
2022/06/27 14:20:23;;;;;;;7.38;4.35;;;;;;;14.26;100.00;101678.06;10434542;28;20037;-77
2022/06/27 14:25:24;;;;;;;7.20;3.80;;;;;;;14.47;99.27;101676.41;10447021;28;20040;-76
2022/06/27 14:30:24;;;;;;;7.50;4.28;;;;;;;14.78;97.94;101680.41;10470258;28;20048;-76
2022/06/27 14:35:25;;;;;;;7.95;4.03;;;;;;;15.31;94.91;101671.16;10439733;28;20049;-76
2022/06/27 14:40:25;;;;;;;11.25;3.38;;;;;;;15.51;92.85;101667.59;10441573;28;20076;-77
2022/06/27 14:45:26;;;;;;;6.82;3.72;;;;;;;15.38;92.10;101668.84;10471336;28;20148;-76
2022/06/27 14:50:26;;;;;;;7.40;3.60;;;;;;;15.17;92.45;101666.22;10445458;28;20061;-77
2022/06/27 14:55:27;;;;;;;6.80;3.80;;;;;;;15.11;93.22;101665.97;10489051;28;20036;-77
2022/06/27 15:00:28;;;;;;;7.25;4.78;;;;;;;15.33;92.82;101658.94;10482144;28;20036;-77
2022/06/27 15:05:29;;;;;;;7.60;4.68;;;;;;;15.44;91.89;101640.91;10489867;28;20037;-75
2022/06/27 15:10:30;;;;;;;6.53;4.60;;;;;;;15.49;92.02;101645.53;10458529;28;20044;-78
2022/06/27 15:15:30;;;;;;;6.35;4.40;;;;;;;15.63;92.15;101647.81;10453123;28;20286;-77
2022/06/27 15:20:31;;;;;;;11.15;7.47;;;;;;;15.56;93.97;101660.75;10421627;28;20373;-76
2022/06/27 15:25:31;;;;;;;9.52;5.65;;;;;;;16.33;93.99;101671.59;10475754;28;20049;-76
2022/06/27 15:30:34;;;;;;;15.30;6.00;;;;;;;16.66;91.43;101674.56;10518848;28;20039;-77
2022/06/27 15:35:35;;;;;;;;;;;;;;;16.76;88.16;101661.66;10498867;28;20051;-77
2022/06/27 15:40:36;;;;;;;8.25;5.47;;;;;;;16.77;87.33;101659.09;10504132;28;19927;-77
2022/06/27 15:45:38;;;;;;;7.45;5.22;;;;;;;16.92;87.83;101657.81;10482197;28;20041;-78
2022/06/27 15:50:39;;;;;;;5.78;4.22;;;;;;;17.33;85.61;101645.09;10505159;28;20127;-78
2022/06/27 15:55:39;;;;;;;7.88;4.63;;;;;;;17.61;83.14;101653.91;10521266;28;20045;-78
2022/06/27 16:00:40;;;;;;;9.55;5.45;;;;;;;17.32;83.33;101675.06;10488465;28;20045;-78
2022/06/27 16:05:40;;;;;;;6.05;4.07;;;;;;;17.22;82.87;101676.47;10484153;28;20051;-79
2022/06/27 16:10:41;;;;;;;7.82;4.95;;;;;;;17.36;84.70;101684.88;10481517;28;20226;-78
2022/06/27 16:15:42;;;;;;;9.45;5.15;;;;;;;17.39;83.00;101682.34;10486080;28;20043;-78
2022/06/27 16:20:43;;;;;;;7.78;5.13;;;;;;;17.07;84.23;101687.47;10503789;28;20286;-77
2022/06/27 16:25:43;;;;;;;7.90;5.00;;;;;;;17.30;85.02;101698.81;10469783;28;20049;-77
2022/06/27 16:36:03;;;;;;;8.18;4.13;;;;;;;17.78;82.19;101693.25;10446676;28;20037;-78
2022/06/27 16:41:03;;;;;;;5.85;3.22;;;;;;;17.32;79.77;101696.22;10451391;28;20048;-77
2022/06/27 16:46:04;;;;;;;8.43;4.47;;;;;;;16.59;83.72;101709.53;10454375;28;20123;-78
2022/06/27 16:51:05;;;;;;;7.82;4.03;;;;;;;16.32;85.80;101697.09;10444906;28;20040;-78
2022/06/27 16:56:08;;;;;;;5.72;4.70;;;;;;;16.11;86.38;101705.13;10477726;28;20477;-77
2022/06/27 17:01:14;;;;;;;7.72;5.38;;;;;;;16.02;87.28;101710.06;10445406;28;20048;-78
2022/06/27 17:06:15;;;;;;;7.28;4.70;;;;;;;15.90;89.41;101707.81;10447045;28;20417;-77
2022/06/27 17:11:15;;;;;;;11.07;5.72;;;;;;;15.90;88.57;101710.47;10444796;28;20033;-77
2022/06/27 17:16:16;;;;;;;8.40;5.22;;;;;;;15.91;87.50;101704.34;10443995;28;20048;-77
2022/06/27 17:21:17;;;;;;;7.35;3.78;;;;;;;15.85;90.00;101710.28;10455763;28;20121;-78
2022/06/27 17:26:17;;;;;;;4.70;2.90;;;;;;;15.72;84.81;101714.16;10455893;28;20037;-78
2022/06/27 17:31:18;;;;;;;5.75;3.30;;;;;;;15.65;86.78;101726.22;10477827;28;20069;-78
2022/06/27 17:36:18;;;;;;;6.70;3.15;;;;;;;15.62;86.99;101739.28;10512947;28;20032;-78
2022/06/27 17:41:19;;;;;;;5.80;3.08;;;;;;;15.49;88.44;101747.53;10486252;28;20093;-79
2022/06/27 17:46:19;;;;;;;7.50;3.40;;;;;;;15.34;86.73;101751.31;10484602;28;20070;-78
2022/06/27 17:51:22;;;;;;;5.15;2.80;;;;;;;15.28;86.28;101764.25;10527157;28;20067;-77
2022/06/27 17:56:23;;;;;;;8.23;2.72;;;;;;;15.26;87.22;101758.88;10485510;28;20044;-78
2022/06/27 18:01:23;;;;;;;5.43;2.25;;;;;;;15.03;87.07;101764.91;10502488;28;20068;-78
2022/06/27 18:06:24;;;;;;;3.97;1.83;;;;;;;14.85;87.23;101765.91;10504004;28;20064;-78
2022/06/27 18:11:25;;;;;;;4.80;2.17;;;;;;;14.69;89.09;101766.94;10503979;28;20032;-78
2022/06/27 18:16:27;;;;;;;4.57;2.20;;;;;;;14.53;89.69;101762.69;10525321;28;20097;-78
2022/06/27 18:21:27;;;;;;;5.07;2.92;;;;;;;14.33;91.28;101762.66;10506450;28;20032;-78
2022/06/27 18:26:28;;;;;;;5.57;2.80;;;;;;;14.35;90.64;101774.16;10505120;28;20066;-77
2022/06/27 18:31:37;;;;;;;7.82;3.20;;;;;;;14.23;92.16;101781.50;10490886;28;20123;-78
2022/06/27 18:36:38;;;;;;;18.15;10.52;;;;;;;14.09;94.86;101783.47;10488227;28;20035;-78
2022/06/27 18:41:38;;;;;;;13.35;6.97;;;;;;;13.95;96.00;101780.16;10487533;28;20047;-78
2022/06/27 18:46:39;;;;;;;7.75;4.13;;;;;;;13.83;96.94;101787.47;10484382;28;20377;-78
2022/06/27 18:51:39;;;;;;;9.38;3.55;;;;;;;13.67;99.13;101798.97;10483541;28;20526;-78
2022/06/27 18:56:40;;;;;;;5.80;3.55;;;;;;;13.51;100.00;101806.97;10521946;28;20381;-78
2022/06/27 19:01:41;;;;;;;4.70;2.85;;;;;;;13.32;100.00;101815.63;10507750;28;20123;-78
2022/06/27 19:06:41;;;;;;;7.10;3.85;;;;;;;13.24;100.00;101816.06;10523819;28;20048;-78
2022/06/27 19:11:42;;;;;;;8.50;3.67;;;;;;;13.14;100.00;101822.56;10506974;28;20127;-78
2022/06/27 19:16:43;;;;;;;6.25;3.75;;;;;;;13.00;100.00;101830.63;10505228;28;20184;-78
2022/06/27 19:21:43;;;;;;;7.70;3.47;;;;;;;12.85;100.00;101816.69;10480271;28;20052;-78
2022/06/27 19:26:44;;;;;;;5.25;3.95;;;;;;;12.75;100.00;101816.19;10481690;28;20063;-78
2022/06/27 19:31:45;;;;;;;14.95;4.88;;;;;;;12.70;100.00;101820.28;10483305;28;20075;-78
2022/06/27 19:36:45;;;;;;;6.97;4.10;;;;;;;12.60;100.00;101817.97;10504150;28;20111;-78
2022/06/27 19:41:50;;;;;;;7.53;4.38;;;;;;;12.43;100.00;101824.91;10456078;28;20086;-78
2022/06/27 19:46:50;;;;;;;11.02;4.72;;;;;;;12.30;100.00;101828.59;10473857;28;20033;-77
2022/06/27 19:51:52;;;;;;;9.93;5.03;;;;;;;12.09;100.00;101830.88;10515644;28;20047;-78
2022/06/27 19:56:53;;;;;;;8.93;5.20;;;;;;;11.97;100.00;101839.84;10497506;28;20036;-78
2022/06/27 20:01:53;;;;;;;11.43;5.63;;;;;;;11.87;100.00;101846.28;10530409;28;20032;-78
2022/06/27 20:07:26;;;;;;;9.80;5.70;;;;;;;11.80;100.00;101844.13;10530113;28;20121;-78
2022/06/27 20:12:14;;;;;;;7.80;4.97;;;;;;;11.74;100.00;101851.63;10486743;28;20067;-77
2022/06/27 20:17:15;;;;;;;9.95;5.60;;;;;;;11.66;100.00;101866.91;10471193;28;20559;-77
2022/06/27 20:22:18;;;;;;;8.25;5.28;;;;;;;11.62;100.00;101869.25;10468082;28;20128;-78
2022/06/27 20:27:20;;;;;;;8.82;5.50;;;;;;;11.53;100.00;101874.84;10459137;28;20396;-78
2022/06/27 20:32:21;;;;;;;20.92;15.93;;;;;;;11.51;100.00;101881.72;10459836;28;20404;-77
2022/06/27 20:37:21;;;;;;;52.05;33.83;;;;;;;11.44;100.00;101877.84;10453292;28;20052;-75
2022/06/27 20:42:22;;;;;;;10.93;7.18;;;;;;;11.36;100.00;101887.84;10405506;28;20040;-75
2022/06/27 20:47:22;;;;;;;11.35;7.80;;;;;;;11.28;100.00;101881.22;10444519;28;20043;-75
2022/06/27 20:52:23;;;;;;;10.43;5.47;;;;;;;11.19;100.00;101883.28;10429552;28;20043;-75
2022/06/27 20:57:24;;;;;;;12.85;7.25;;;;;;;11.10;100.00;101886.25;10434171;28;20040;-77
2022/06/27 21:02:24;;;;;;;10.10;7.95;;;;;;;11.08;100.00;101890.50;10429619;28;20037;-75
2022/06/27 21:07:25;;;;;;;18.92;13.88;;;;;;;10.99;100.00;101883.88;10454731;28;20476;-75
2022/06/27 21:12:25;;;;;;;16.17;10.85;;;;;;;10.94;100.00;101890.53;10452065;28;20134;-75
2022/06/27 21:17:26;;;;;;;13.38;8.82;;;;;;;10.87;100.00;101881.38;10470894;28;20044;-75
2022/06/27 21:22:26;;;;;;;16.33;7.97;;;;;;;10.87;100.00;101893.59;10485989;28;20057;-76
2022/06/27 21:27:27;;;;;;;14.52;8.25;;;;;;;10.84;100.00;101888.16;10467110;28;20036;-75
2022/06/27 21:32:27;;;;;;;11.25;8.13;;;;;;;10.79;100.00;101890.47;10480463;28;20047;-75
2022/06/27 21:37:28;;;;;;;11.80;8.20;;;;;;;10.74;100.00;101889.28;10473356;28;20036;-76
2022/06/27 21:42:28;;;;;;;13.65;7.78;;;;;;;10.69;100.00;101893.31;10485736;28;20056;-75
2022/06/27 21:47:29;;;;;;;10.15;8.93;;;;;;;10.59;100.00;101897.06;10493987;28;20024;-75
2022/06/27 21:52:42;;;;;;;11.65;8.27;;;;;;;10.50;100.00;101891.25;10466363;28;20045;-78
2022/06/27 21:57:43;;;;;;;19.75;12.30;;;;;;;10.45;100.00;101893.56;10515227;28;20117;-78
2022/06/27 22:02:46;;;;;;;11.32;8.38;;;;;;;10.44;100.00;101891.75;10509238;28;20044;-76
2022/06/27 22:07:47;;;;;;;14.30;8.60;;;;;;;10.36;100.00;101895.53;10496538;28;20119;-77
2022/06/27 22:12:47;;;;;;;11.70;8.65;;;;;;;10.30;100.00;101896.06;10499464;28;20040;-78
2022/06/27 22:17:48;;;;;;;17.60;10.02;;;;;;;10.23;100.00;101902.59;10516210;28;20523;-78
2022/06/27 22:22:48;;;;;;;14.70;10.23;;;;;;;10.15;100.00;101895.94;10509340;28;20028;-77
2022/06/27 22:27:49;;;;;;;16.02;10.98;;;;;;;10.08;100.00;101898.97;10490014;28;20040;-77
2022/06/27 22:32:49;;;;;;;14.02;10.93;;;;;;;10.09;100.00;101906.00;10466825;28;20075;-76
2022/06/27 22:37:50;;;;;;;16.23;11.18;;;;;;;10.10;100.00;101906.13;10414113;28;20124;-77
2022/06/27 22:42:51;;;;;;;16.67;11.80;;;;;;;10.15;100.00;101911.63;10477517;28;20109;-78
2022/06/27 22:47:52;;;;;;;15.20;11.13;;;;;;;10.07;100.00;101899.75;10442840;28;20040;-78
2022/06/27 22:52:52;;;;;;;17.08;13.73;;;;;;;9.99;100.00;101905.38;10429901;28;20056;-78